Time;durP1;ratioP1;P1;durP2;ratioP2;P2;SDS_P1;SDS_P2;PMS_P1;PMS_P2;Temp;Humidity;BMP_temperature;BMP_pressure;BME280_temperature;BME280_humidity;BME280_pressure;Samples;Min_cycle;Max_cycle;Signal;HPM_P1;HPM_P2
2022/04/26 03:36:38;;;;;;;13.63;11.57;;;;;;;;;;8169727;28;20039;-70
2022/04/26 03:40:38;;;;;;;14.85;11.73;;;;;;;;;;8171528;28;20962;-70
2022/04/26 03:44:38;;;;;;;14.13;11.73;;;;;;;;;;8170891;28;20957;-70
2022/04/26 03:48:38;;;;;;;16.75;13.52;;;;;;;;;;8169655;28;20117;-70
2022/04/26 03:52:41;;;;;;;18.90;14.45;;;;;;;;;;8168773;28;20038;-70
2022/04/26 03:56:41;;;;;;;15.95;13.50;;;;;;;;;;8170010;28;20153;-70
2022/04/26 04:00:42;;;;;;;15.95;13.27;;;;;;;;;;8165742;28;20043;-70
2022/04/26 04:04:42;;;;;;;16.33;13.47;;;;;;;;;;8169169;28;20634;-70
2022/04/26 04:08:42;;;;;;;15.88;13.85;;;;;;;;;;8168374;28;20043;-70
2022/04/26 04:12:42;;;;;;;16.33;12.73;;;;;;;;;;8169354;28;20031;-70
2022/04/26 04:16:42;;;;;;;15.45;13.10;;;;;;;;;;8167380;28;20891;-69
2022/04/26 04:20:43;;;;;;;16.17;12.63;;;;;;;;;;8172377;28;20058;-70
2022/04/26 04:24:43;;;;;;;13.30;11.80;;;;;;;;;;8175989;28;20082;-70
2022/04/26 04:28:43;;;;;;;12.23;10.02;;;;;;;;;;8173126;28;20097;-70
2022/04/26 04:32:43;;;;;;;10.03;8.63;;;;;;;;;;8170467;28;20036;-70
2022/04/26 04:36:43;;;;;;;11.95;9.50;;;;;;;;;;8170243;28;21108;-70
2022/04/26 04:40:44;;;;;;;9.98;8.57;;;;;;;;;;8166467;28;20023;-71
2022/04/26 04:44:44;;;;;;;9.40;8.45;;;;;;;;;;8165784;28;20904;-71
2022/04/26 04:48:44;;;;;;;9.00;7.47;;;;;;;;;;8162097;28;20039;-71
2022/04/26 04:52:45;;;;;;;10.90;8.80;;;;;;;;;;8163538;28;20111;-71
2022/04/26 04:56:45;;;;;;;17.70;12.05;;;;;;;;;;8162636;28;20483;-70
2022/04/26 05:00:46;;;;;;;22.08;13.75;;;;;;;;;;8163300;28;20065;-71
2022/04/26 05:04:47;;;;;;;22.77;14.00;;;;;;;;;;8164774;28;20121;-70
2022/04/26 05:08:48;;;;;;;27.65;12.30;;;;;;;;;;8166320;28;20262;-71
2022/04/26 05:12:48;;;;;;;13.63;10.40;;;;;;;;;;8166875;28;20493;-71
2022/04/26 05:16:48;;;;;;;10.45;8.00;;;;;;;;;;8165215;28;20039;-71
2022/04/26 05:20:49;;;;;;;19.02;8.45;;;;;;;;;;8171344;28;20023;-70
2022/04/26 05:24:58;;;;;;;13.77;8.48;;;;;;;;;;8174053;28;20046;-71
2022/04/26 05:28:58;;;;;;;11.98;8.35;;;;;;;;;;8172802;28;20023;-71
2022/04/26 05:32:59;;;;;;;14.07;7.25;;;;;;;;;;8168726;28;20061;-71
2022/04/26 05:36:59;;;;;;;10.98;7.15;;;;;;;;;;8173064;28;20023;-70
2022/04/26 05:40:59;;;;;;;8.80;7.00;;;;;;;;;;8172220;28;20027;-71
2022/04/26 05:44:59;;;;;;;18.63;8.15;;;;;;;;;;8168124;28;20023;-71
2022/04/26 05:48:59;;;;;;;10.65;8.95;;;;;;;;;;8168945;28;20051;-70
2022/04/26 05:52:59;;;;;;;15.07;10.95;;;;;;;;;;8166092;28;20730;-71
2022/04/26 05:57:00;;;;;;;12.30;9.20;;;;;;;;;;8171022;28;20023;-70
2022/04/26 06:01:00;;;;;;;16.92;10.88;;;;;;;;;;8166938;28;20031;-70
2022/04/26 06:05:00;;;;;;;12.93;10.77;;;;;;;;;;8166713;28;20033;-71
2022/04/26 06:09:01;;;;;;;13.40;11.10;;;;;;;;;;8166885;28;20119;-70
2022/04/26 06:13:01;;;;;;;11.43;9.27;;;;;;;;;;8164281;28;20155;-70
2022/04/26 06:17:02;;;;;;;11.00;8.85;;;;;;;;;;8163998;28;20051;-71
2022/04/26 06:21:02;;;;;;;12.88;9.77;;;;;;;;;;8166856;28;20628;-70
2022/04/26 06:25:02;;;;;;;10.32;8.95;;;;;;;;;;8165202;28;20034;-70
2022/04/26 06:29:02;;;;;;;10.03;8.60;;;;;;;;;;8162691;28;20676;-71
2022/04/26 06:33:02;;;;;;;8.77;7.88;;;;;;;;;;8160752;28;20330;-70
2022/04/26 06:37:02;;;;;;;8.50;7.63;;;;;;;;;;8163272;28;20032;-70
2022/04/26 06:41:03;;;;;;;8.05;7.25;;;;;;;;;;8162802;28;20040;-71
2022/04/26 06:45:03;;;;;;;7.40;6.30;;;;;;;;;;8161959;28;20031;-71
2022/04/26 06:49:04;;;;;;;6.37;5.77;;;;;;;;;;8170258;28;20097;-71
2022/04/26 06:53:04;;;;;;;6.40;5.80;;;;;;;;;;8158582;28;20306;-70
2022/04/26 06:57:05;;;;;;;6.35;5.68;;;;;;;;;;8164728;28;20142;-71
2022/04/26 07:01:06;;;;;;;7.03;5.28;;;;;;;;;;8169704;28;20063;-73
2022/04/26 07:05:07;;;;;;;6.38;5.78;;;;;;;;;;8168462;28;20954;-71
2022/04/26 07:09:07;;;;;;;5.97;5.38;;;;;;;;;;8163347;28;20038;-70
2022/04/26 07:13:07;;;;;;;5.53;5.03;;;;;;;;;;8155110;28;20481;-71
2022/04/26 07:17:07;;;;;;;5.88;5.25;;;;;;;;;;8161803;28;20043;-71
2022/04/26 07:21:08;;;;;;;5.68;5.10;;;;;;;;;;8166630;28;20019;-71
2022/04/26 07:25:09;;;;;;;5.65;5.15;;;;;;;;;;8169325;28;20071;-71
2022/04/26 07:29:10;;;;;;;7.30;5.57;;;;;;;;;;8169217;28;20737;-71
2022/04/26 07:37:29;;;;;;;5.30;4.80;;;;;;;;;;8170600;28;20155;-71
2022/04/26 07:41:29;;;;;;;5.53;4.93;;;;;;;;;;8164031;28;20046;-70
2022/04/26 07:45:30;;;;;;;5.85;5.35;;;;;;;;;;8165941;28;20106;-71
2022/04/26 07:49:30;;;;;;;6.15;5.55;;;;;;;;;;8166116;28;20028;-70
2022/04/26 07:53:30;;;;;;;7.03;6.32;;;;;;;;;;8166910;28;20023;-71
2022/04/26 07:57:30;;;;;;;8.63;5.78;;;;;;;;;;8171642;28;20031;-71
2022/04/26 08:01:31;;;;;;;5.40;4.90;;;;;;;;;;8165924;28;20039;-71
2022/04/26 08:05:31;;;;;;;5.47;4.97;;;;;;;;;;8165748;28;20021;-71
2022/04/26 08:09:38;;;;;;;5.55;5.03;;;;;;;;;;8163726;28;20274;-71
2022/04/26 08:13:39;;;;;;;6.18;5.00;;;;;;;;;;8162599;28;20023;-71
2022/04/26 08:17:40;;;;;;;7.05;6.07;;;;;;;;;;8181487;28;20043;-71
2022/04/26 08:21:40;;;;;;;7.95;6.88;;;;;;;;;;8162051;28;20023;-71
2022/04/26 08:30:04;;;;;;;8.52;6.75;;;;;;;;;;8164332;28;20102;-71
2022/04/26 08:34:05;;;;;;;7.22;6.15;;;;;;;;;;8162634;28;20079;-71
2022/04/26 08:38:05;;;;;;;6.85;6.15;;;;;;;;;;8165192;28;20038;-71
2022/04/26 08:42:06;;;;;;;8.13;6.68;;;;;;;;;;8160207;28;20463;-71
2022/04/26 08:46:06;;;;;;;6.55;5.70;;;;;;;;;;8165037;28;20031;-71
2022/04/26 08:54:26;;;;;;;6.65;6.05;;;;;;;;;;8164512;28;20194;-71
2022/04/26 08:58:27;;;;;;;8.05;6.10;;;;;;;;;;8161703;28;20051;-72
2022/04/26 09:02:27;;;;;;;7.80;6.43;;;;;;;;;;8163285;28;20031;-71
2022/04/26 09:06:41;;;;;;;9.25;7.28;;;;;;;;;;8163941;28;20106;-71
2022/04/26 09:10:46;;;;;;;8.32;6.97;;;;;;;;;;8180764;28;20034;-71
2022/04/26 09:14:50;;;;;;;7.28;6.35;;;;;;;;;;8164875;28;20031;-71
2022/04/26 09:18:54;;;;;;;6.68;5.90;;;;;;;;;;8162891;28;20051;-71
2022/04/26 09:22:57;;;;;;;6.38;5.47;;;;;;;;;;8163723;28;20082;-71
2022/04/26 09:26:58;;;;;;;6.43;5.53;;;;;;;;;;8172280;28;20023;-71
2022/04/26 09:30:58;;;;;;;4.95;4.45;;;;;;;;;;8162240;28;20555;-71
2022/04/26 09:34:58;;;;;;;5.07;4.22;;;;;;;;;;8164182;28;20031;-71
2022/04/26 09:38:59;;;;;;;5.57;4.47;;;;;;;;;;8169788;28;20083;-71
2022/04/26 09:42:59;;;;;;;5.97;3.90;;;;;;;;;;8174412;28;20150;-70
2022/04/26 09:47:00;;;;;;;3.95;3.28;;;;;;;;;;8165514;28;20038;-71
2022/04/26 09:51:00;;;;;;;5.68;3.53;;;;;;;;;;8161122;28;20026;-71
2022/04/26 09:55:00;;;;;;;4.18;3.65;;;;;;;;;;8159806;28;20035;-71
2022/04/26 09:59:01;;;;;;;4.28;3.55;;;;;;;;;;8160291;28;20034;-70
2022/04/26 10:03:06;;;;;;;4.97;3.78;;;;;;;;;;8158185;28;20127;-70
2022/04/26 10:07:11;;;;;;;3.90;3.20;;;;;;;;;;8167014;28;20528;-71
2022/04/26 10:11:11;;;;;;;3.17;2.35;;;;;;;;;;8163612;28;20042;-71
2022/04/26 10:15:11;;;;;;;2.83;2.35;;;;;;;;;;8162785;28;20023;-71
2022/04/26 10:19:12;;;;;;;6.50;2.53;;;;;;;;;;8160692;28;20959;-71
2022/04/26 10:23:13;;;;;;;3.20;2.17;;;;;;;;;;8152618;28;20027;-71
2022/04/26 10:27:17;;;;;;;2.97;2.08;;;;;;;;;;8164356;28;20882;-71
2022/04/26 10:31:22;;;;;;;;;;;;;;;;;;8166005;28;20042;-70
2022/04/26 10:35:25;;;;;;;1.58;1.17;;;;;;;;;;8165936;28;19922;-71
2022/04/26 10:39:26;;;;;;;2.30;1.98;;;;;;;;;;8165593;28;20030;-70
2022/04/26 10:43:26;;;;;;;2.20;2.00;;;;;;;;;;8165343;28;20027;-71
2022/04/26 10:47:27;;;;;;;3.30;2.17;;;;;;;;;;8166738;28;20657;-71
2022/04/26 10:51:31;;;;;;;1.88;1.30;;;;;;;;;;8166503;28;20089;-71
2022/04/26 10:55:31;;;;;;;2.05;1.27;;;;;;;;;;8165087;28;20496;-70
2022/04/26 10:59:32;;;;;;;2.20;1.10;;;;;;;;;;8165024;28;21140;-71
2022/04/26 11:03:49;;;;;;;1.10;1.10;;;;;;;;;;8166722;28;20039;-71
2022/04/26 11:07:50;;;;;;;2.22;1.40;;;;;;;;;;8166746;28;20369;-70
2022/04/26 11:11:51;;;;;;;2.60;1.40;;;;;;;;;;8165600;28;20563;-71
2022/04/26 11:16:04;;;;;;;2.30;1.90;;;;;;;;;;8161631;28;20525;-70
2022/04/26 11:20:16;;;;;;;3.45;3.15;;;;;;;;;;8167176;28;20031;-70
2022/04/26 11:28:38;;;;;;;3.13;2.83;;;;;;;;;;8171091;28;20155;-70
2022/04/26 11:32:43;;;;;;;3.83;3.30;;;;;;;;;;8166736;28;20067;-70
2022/04/26 11:36:43;;;;;;;3.90;3.60;;;;;;;;;;8167899;28;20122;-70
2022/04/26 11:40:47;;;;;;;3.53;3.20;;;;;;;;;;8167330;28;20531;-70
2022/04/26 11:45:17;;;;;;;6.07;3.10;;;;;;;;;;8170999;28;20039;-70
2022/04/26 11:49:18;;;;;;;3.15;2.85;;;;;;;;;;8154839;28;20485;-70
2022/04/26 11:53:19;;;;;;;3.80;2.50;;;;;;;;;;8167450;28;20073;-70
2022/04/26 11:57:23;;;;;;;1.90;1.80;;;;;;;;;;8164484;28;20051;-70
2022/04/26 12:01:23;;;;;;;2.72;1.65;;;;;;;;;;8159912;28;20035;-70
2022/04/26 12:05:24;;;;;;;1.90;1.50;;;;;;;;;;8179967;28;20026;-70
2022/04/26 12:09:26;;;;;;;1.50;1.00;;;;;;;;;;8165631;28;20905;-70
2022/04/26 12:13:28;;;;;;;1.00;1.00;;;;;;;;;;8165748;28;20035;-70
2022/04/26 12:17:30;;;;;;;2.95;1.02;;;;;;;;;;8166269;28;20058;-70
2022/04/26 12:21:46;;;;;;;1.70;1.33;;;;;;;;;;8163128;28;20055;-70
2022/04/26 12:25:57;;;;;;;1.38;1.27;;;;;;;;;;8161447;28;20056;-70
2022/04/26 12:29:58;;;;;;;1.45;1.33;;;;;;;;;;8163977;28;21349;-70
2022/04/26 12:34:13;;;;;;;2.10;1.23;;;;;;;;;;8162914;28;20039;-70
2022/04/26 12:38:13;;;;;;;1.55;1.45;;;;;;;;;;8164801;28;20039;-70
2022/04/26 12:42:28;;;;;;;1.42;1.30;;;;;;;;;;8170019;28;20085;-70
2022/04/26 12:46:28;;;;;;;1.70;1.60;;;;;;;;;;8164482;28;20042;-70
2022/04/26 12:50:28;;;;;;;1.55;1.40;;;;;;;;;;8164683;28;20023;-70
2022/04/26 12:54:28;;;;;;;1.70;1.60;;;;;;;;;;8163902;28;20097;-70
2022/04/26 12:58:36;;;;;;;2.40;1.83;;;;;;;;;;8166210;28;20033;-70
2022/04/26 13:02:36;;;;;;;3.17;1.73;;;;;;;;;;8164061;28;20272;-71
2022/04/26 13:06:36;;;;;;;1.60;1.50;;;;;;;;;;8164486;28;20073;-70
2022/04/26 13:10:36;;;;;;;1.85;1.67;;;;;;;;;;8164092;28;20038;-70
2022/04/26 13:14:37;;;;;;;1.67;1.50;;;;;;;;;;8172766;28;20118;-70
2022/04/26 13:18:38;;;;;;;1.85;1.48;;;;;;;;;;8161525;28;20037;-70
2022/04/26 13:22:38;;;;;;;1.27;1.20;;;;;;;;;;8182542;28;20057;-70
2022/04/26 13:26:38;;;;;;;1.35;1.20;;;;;;;;;;8167139;28;20047;-70
2022/04/26 13:30:39;;;;;;;1.50;1.10;;;;;;;;;;8162853;28;20157;-70
2022/04/26 13:34:39;;;;;;;1.00;1.00;;;;;;;;;;8162177;28;20028;-70
2022/04/26 13:38:39;;;;;;;1.83;1.33;;;;;;;;;;8163661;28;20034;-71
2022/04/26 13:42:39;;;;;;;1.40;1.30;;;;;;;;;;8162662;28;20019;-70
2022/04/26 13:46:40;;;;;;;1.98;1.40;;;;;;;;;;8159516;28;20027;-70
2022/04/26 13:50:40;;;;;;;1.40;1.30;;;;;;;;;;8161751;28;20027;-70
2022/04/26 13:54:42;;;;;;;2.17;1.50;;;;;;;;;;8164242;28;20027;-70
2022/04/26 13:58:42;;;;;;;1.38;1.27;;;;;;;;;;8166876;28;20035;-71
2022/04/26 14:02:45;;;;;;;1.58;1.48;;;;;;;;;;8167287;28;20059;-70
2022/04/26 14:06:46;;;;;;;1.10;1.05;;;;;;;;;;8172191;28;20071;-70
2022/04/26 14:10:47;;;;;;;1.70;1.02;;;;;;;;;;8171896;28;20384;-70
2022/04/26 14:23:25;;;;;;;1.60;1.50;;;;;;;;;;8170145;28;20063;-71
2022/04/26 14:27:26;;;;;;;2.05;1.70;;;;;;;;;;8169465;28;20031;-70
2022/04/26 14:31:26;;;;;;;1.58;1.33;;;;;;;;;;8168734;28;20031;-71
2022/04/26 14:35:29;;;;;;;1.67;1.33;;;;;;;;;;8166707;28;20027;-70
2022/04/26 14:39:29;;;;;;;1.10;1.10;;;;;;;;;;8169519;28;20019;-70
2022/04/26 14:43:29;;;;;;;1.00;1.00;;;;;;;;;;8169067;28;20672;-70
2022/04/26 14:47:30;;;;;;;1.30;1.20;;;;;;;;;;8167413;28;20039;-70
2022/04/26 14:51:30;;;;;;;1.00;1.00;;;;;;;;;;8170211;28;20031;-71
2022/04/26 14:55:30;;;;;;;0.93;0.93;;;;;;;;;;8174008;28;20299;-70
2022/04/26 14:59:32;;;;;;;1.30;1.20;;;;;;;;;;8168518;28;20662;-71
2022/04/26 15:03:34;;;;;;;1.45;1.30;;;;;;;;;;8174405;28;21132;-70
2022/04/26 15:20:31;;;;;;;1.40;1.30;;;;;;;;;;8169436;28;20147;-71
2022/04/26 15:24:32;;;;;;;1.30;1.20;;;;;;;;;;8169299;28;20051;-71
2022/04/26 15:28:33;;;;;;;1.40;1.30;;;;;;;;;;8169876;28;20026;-71
2022/04/26 15:32:34;;;;;;;1.45;1.33;;;;;;;;;;8166465;28;20086;-71
2022/04/26 15:36:35;;;;;;;1.33;1.23;;;;;;;;;;8168328;28;20038;-71
2022/04/26 15:40:35;;;;;;;1.70;1.60;;;;;;;;;;8167853;28;20027;-71
2022/04/26 15:44:35;;;;;;;1.93;1.43;;;;;;;;;;8168828;28;20131;-71
2022/04/26 15:48:38;;;;;;;1.48;1.38;;;;;;;;;;8163662;28;20032;-71
2022/04/26 15:52:40;;;;;;;1.70;1.60;;;;;;;;;;8162950;28;20042;-71
2022/04/26 15:56:42;;;;;;;1.45;1.40;;;;;;;;;;8166452;28;20513;-71
2022/04/26 16:00:43;;;;;;;3.17;1.40;;;;;;;;;;8166269;28;20989;-71
2022/04/26 16:04:43;;;;;;;1.77;1.67;;;;;;;;;;8167587;28;20111;-71
2022/04/26 16:08:43;;;;;;;2.23;1.90;;;;;;;;;;8175295;28;20027;-71
2022/04/26 16:21:25;;;;;;;2.45;1.95;;;;;;;;;;8163938;28;20107;-71
2022/04/26 16:25:26;;;;;;;2.40;2.20;;;;;;;;;;8169076;28;20472;-71
2022/04/26 16:29:26;;;;;;;4.93;2.40;;;;;;;;;;8168165;28;20022;-71
2022/04/26 16:33:26;;;;;;;2.70;2.15;;;;;;;;;;8165578;28;20286;-71
2022/04/26 16:37:27;;;;;;;2.60;2.22;;;;;;;;;;8168222;28;20031;-71
2022/04/26 16:41:27;;;;;;;3.03;2.22;;;;;;;;;;8167816;28;20118;-71
2022/04/26 16:45:27;;;;;;;2.70;2.33;;;;;;;;;;8182716;28;20098;-71
2022/04/26 16:49:27;;;;;;;2.20;2.00;;;;;;;;;;8166874;28;20118;-70
2022/04/26 16:53:27;;;;;;;2.42;2.20;;;;;;;;;;8161232;28;20029;-71
2022/04/26 16:57:28;;;;;;;2.70;2.50;;;;;;;;;;8167193;28;20039;-71
2022/04/26 17:01:28;;;;;;;3.88;2.22;;;;;;;;;;8164861;28;20042;-71
2022/04/26 17:05:28;;;;;;;2.53;2.33;;;;;;;;;;8165355;28;20070;-71
2022/04/26 17:09:30;;;;;;;2.95;2.67;;;;;;;;;;8170363;28;20023;-71
2022/04/26 17:13:30;;;;;;;2.55;2.35;;;;;;;;;;8166092;28;20034;-71
2022/04/26 17:17:33;;;;;;;3.05;2.40;;;;;;;;;;8148930;28;20043;-71
2022/04/26 17:21:33;;;;;;;3.10;2.80;;;;;;;;;;8130283;29;21075;-71
2022/04/26 17:25:34;;;;;;;4.00;3.10;;;;;;;;;;8130405;29;20663;-71
2022/04/26 17:29:35;;;;;;;5.15;2.80;;;;;;;;;;8130104;29;20015;-71
2022/04/26 17:33:35;;;;;;;3.20;2.90;;;;;;;;;;8154051;28;20607;-71
2022/04/26 17:37:37;;;;;;;3.20;2.90;;;;;;;;;;8161222;28;20051;-71
2022/04/26 17:41:39;;;;;;;3.17;2.92;;;;;;;;;;8159930;28;20033;-70
2022/04/26 17:45:40;;;;;;;3.10;2.80;;;;;;;;;;8156457;28;20517;-72
2022/04/26 17:49:42;;;;;;;3.45;3.03;;;;;;;;;;8156820;28;20019;-71
2022/04/26 17:58:01;;;;;;;3.10;2.78;;;;;;;;;;8157890;28;20038;-71
2022/04/26 18:02:01;;;;;;;3.77;3.10;;;;;;;;;;8158018;28;20035;-71
2022/04/26 18:06:02;;;;;;;3.35;3.05;;;;;;;;;;8157759;28;20301;-70
2022/04/26 18:10:03;;;;;;;6.63;3.13;;;;;;;;;;8157486;28;20488;-71
2022/04/26 18:14:03;;;;;;;2.85;2.65;;;;;;;;;;8159781;28;20063;-71
2022/04/26 18:18:04;;;;;;;3.10;2.80;;;;;;;;;;8155415;28;20047;-71
2022/04/26 18:22:04;;;;;;;4.05;2.80;;;;;;;;;;8155855;28;20117;-71
2022/04/26 18:26:10;;;;;;;2.95;2.75;;;;;;;;;;8155543;28;20817;-71
2022/04/26 18:30:11;;;;;;;3.38;3.00;;;;;;;;;;8157364;28;20098;-71
2022/04/26 18:34:13;;;;;;;3.28;2.97;;;;;;;;;;8155912;28;20085;-71
2022/04/26 18:38:13;;;;;;;4.30;2.88;;;;;;;;;;8156277;28;20028;-71
2022/04/26 18:42:14;;;;;;;4.20;3.63;;;;;;;;;;8153160;28;20681;-70
2022/04/26 18:46:15;;;;;;;3.60;3.25;;;;;;;;;;8163134;28;20669;-70
2022/04/26 18:50:15;;;;;;;4.88;3.65;;;;;;;;;;8159239;28;20031;-70
2022/04/26 18:54:15;;;;;;;4.10;3.70;;;;;;;;;;8159008;28;20027;-70
2022/04/26 18:58:18;;;;;;;4.70;4.20;;;;;;;;;;8159444;28;20031;-70
2022/04/26 19:02:19;;;;;;;6.60;3.85;;;;;;;;;;8162383;28;20777;-70
2022/04/26 19:06:19;;;;;;;4.72;4.13;;;;;;;;;;8161575;28;20872;-70
2022/04/26 19:14:39;;;;;;;4.80;4.22;;;;;;;;;;8161900;28;20030;-70
2022/04/26 19:18:39;;;;;;;4.78;4.18;;;;;;;;;;8161914;28;20036;-71
2022/04/26 19:22:39;;;;;;;5.45;4.45;;;;;;;;;;8163670;28;20847;-70
2022/04/26 19:26:40;;;;;;;4.73;4.33;;;;;;;;;;8163944;28;20106;-70
2022/04/26 19:30:42;;;;;;;4.45;4.05;;;;;;;;;;8164247;28;21031;-71
2022/04/26 19:34:42;;;;;;;5.50;4.70;;;;;;;;;;8159306;28;20035;-71
2022/04/26 19:38:42;;;;;;;5.70;4.30;;;;;;;;;;8161477;28;20379;-71
2022/04/26 19:42:42;;;;;;;4.95;4.35;;;;;;;;;;8158498;28;20019;-71
2022/04/26 19:46:43;;;;;;;4.37;3.90;;;;;;;;;;8161741;28;20106;-71
2022/04/26 19:55:02;;;;;;;4.63;3.95;;;;;;;;;;8162840;28;20122;-71
2022/04/26 19:59:02;;;;;;;4.10;3.70;;;;;;;;;;8160115;28;20569;-71
2022/04/26 20:03:03;;;;;;;4.75;4.13;;;;;;;;;;8160916;28;20105;-71
2022/04/26 20:07:05;;;;;;;5.68;4.60;;;;;;;;;;8159823;28;20038;-71
2022/04/26 20:11:05;;;;;;;5.20;4.70;;;;;;;;;;8160289;28;20031;-71
2022/04/26 20:15:07;;;;;;;6.13;4.57;;;;;;;;;;8158154;28;20117;-71
2022/04/26 20:19:07;;;;;;;5.65;4.80;;;;;;;;;;8158960;28;20071;-70
2022/04/26 20:23:08;;;;;;;5.20;4.70;;;;;;;;;;8159380;28;20082;-70
2022/04/26 20:31:27;;;;;;;5.35;4.85;;;;;;;;;;8158118;28;20743;-71
2022/04/26 20:35:28;;;;;;;5.97;4.57;;;;;;;;;;8160212;28;20433;-71
2022/04/26 20:39:28;;;;;;;6.13;5.00;;;;;;;;;;8160161;28;21076;-71
2022/04/26 20:43:28;;;;;;;5.68;4.72;;;;;;;;;;8158895;28;20429;-71
2022/04/26 20:47:28;;;;;;;4.78;4.28;;;;;;;;;;8158347;28;20487;-70
2022/04/26 20:51:29;;;;;;;4.67;4.27;;;;;;;;;;8157293;28;20027;-71
2022/04/26 20:55:31;;;;;;;6.00;4.15;;;;;;;;;;8159766;28;20293;-71
2022/04/26 20:59:32;;;;;;;4.65;4.18;;;;;;;;;;8158129;28;20886;-70
2022/04/26 21:03:32;;;;;;;4.70;4.30;;;;;;;;;;8157995;28;20031;-70
2022/04/26 21:07:32;;;;;;;10.32;4.43;;;;;;;;;;8158363;28;20063;-70
2022/04/26 21:11:33;;;;;;;4.63;4.13;;;;;;;;;;8158369;28;20042;-70
2022/04/26 21:15:33;;;;;;;4.53;4.03;;;;;;;;;;8157152;28;20039;-70
2022/04/26 21:19:33;;;;;;;4.15;3.75;;;;;;;;;;8162322;28;20031;-71
2022/04/26 21:23:33;;;;;;;6.25;4.32;;;;;;;;;;8159041;28;20031;-70
2022/04/26 21:27:34;;;;;;;3.88;3.47;;;;;;;;;;8158466;28;20053;-70
2022/04/26 21:31:34;;;;;;;4.40;4.00;;;;;;;;;;8159844;28;20098;-70
2022/04/26 21:35:34;;;;;;;4.65;4.25;;;;;;;;;;8163484;28;20023;-69
2022/04/26 21:39:34;;;;;;;5.83;4.17;;;;;;;;;;8159972;28;20047;-69
2022/04/26 21:43:35;;;;;;;5.45;4.28;;;;;;;;;;8164370;28;20332;-69
2022/04/26 21:47:36;;;;;;;4.47;4.00;;;;;;;;;;8163633;28;20664;-69
2022/04/26 21:51:36;;;;;;;5.07;4.57;;;;;;;;;;8163282;28;20023;-69
2022/04/26 21:55:37;;;;;;;5.32;4.82;;;;;;;;;;8163215;28;20026;-69
2022/04/26 21:59:37;;;;;;;4.95;4.43;;;;;;;;;;8162668;28;20031;-69
2022/04/26 22:03:39;;;;;;;6.53;4.47;;;;;;;;;;8161246;28;20031;-69
2022/04/26 22:07:39;;;;;;;5.93;4.85;;;;;;;;;;8164679;28;20031;-69
2022/04/26 22:11:39;;;;;;;5.63;5.10;;;;;;;;;;8163209;28;20066;-69
2022/04/26 22:15:40;;;;;;;5.65;5.07;;;;;;;;;;8164990;28;20039;-69
2022/04/26 22:19:40;;;;;;;5.18;4.68;;;;;;;;;;8166458;28;20023;-69
2022/04/26 22:23:41;;;;;;;6.93;5.25;;;;;;;;;;8169918;28;20759;-69
2022/04/26 22:27:42;;;;;;;6.72;5.32;;;;;;;;;;8172321;28;20015;-69
2022/04/26 22:31:42;;;;;;;6.03;5.43;;;;;;;;;;8169311;28;20031;-69
2022/04/26 22:35:43;;;;;;;6.57;5.90;;;;;;;;;;8169433;28;20512;-69
2022/04/26 22:39:43;;;;;;;6.90;5.13;;;;;;;;;;8173724;28;20029;-69
2022/04/26 22:43:44;;;;;;;8.48;5.93;;;;;;;;;;8172665;28;20275;-69
2022/04/26 22:47:44;;;;;;;7.28;5.40;;;;;;;;;;8169680;28;20074;-69
2022/04/26 22:51:44;;;;;;;6.10;5.15;;;;;;;;;;8168793;28;20066;-69
2022/04/26 22:55:44;;;;;;;5.82;5.22;;;;;;;;;;8166960;28;20659;-69
2022/04/26 22:59:44;;;;;;;6.82;5.50;;;;;;;;;;8170219;28;20042;-69
2022/04/26 23:03:45;;;;;;;6.25;5.65;;;;;;;;;;8166853;28;20046;-69
2022/04/26 23:07:45;;;;;;;6.10;5.40;;;;;;;;;;8169987;28;20139;-69
2022/04/26 23:11:45;;;;;;;8.20;5.88;;;;;;;;;;8170427;28;20118;-69
2022/04/26 23:15:45;;;;;;;6.47;5.80;;;;;;;;;;8167725;28;20041;-69
2022/04/26 23:19:45;;;;;;;6.18;5.65;;;;;;;;;;8169287;28;20110;-69
2022/04/26 23:23:46;;;;;;;7.45;6.05;;;;;;;;;;8168473;28;20030;-69
2022/04/26 23:27:46;;;;;;;6.70;5.50;;;;;;;;;;8168445;28;20055;-69
2022/04/26 23:31:46;;;;;;;7.05;5.65;;;;;;;;;;8172244;28;20035;-69
2022/04/26 23:35:47;;;;;;;7.70;6.05;;;;;;;;;;8172393;28;20062;-69
2022/04/26 23:39:47;;;;;;;6.38;5.57;;;;;;;;;;8172584;28;20097;-70
2022/04/26 23:43:47;;;;;;;5.95;4.93;;;;;;;;;;8169966;28;20032;-69
2022/04/26 23:47:47;;;;;;;7.75;5.85;;;;;;;;;;8169395;28;20126;-69
2022/04/26 23:56:06;;;;;;;6.88;5.88;;;;;;;;;;8170403;28;20602;-69
